Rae — WDF3909 — position and weather

sailwx.info

Track history (hours):
 
Tides and Currents Weather Stations Pressure Air Temp Water Temp Dewpoint Dewpoint Depression Visibility Wind Speed Wind Dir Waves Ship Positions

Rae

Owner: Fox Marine Corporation, Easton, PA. More information available from US FCC via Universal Licensing System and Coast Guard Vessel Documentation Center.

Last reported at 2015-May-17 15:33 UTC. Time now 2015-Jul-01 15:11 UTC.
Position N 40°46' W 073°51'.
Warning: this ship's position is 44 days out of date.

; draft 2 m.

Type: Fishing. MMSI: 367445510.

Date/timePositionNaut miles runAvg speedWind from/ knotsBaromVisibWave heightAir tempDewpointWater temp
2015-May-17 15:33N 40°46' W 073°51'1 0.6
2015-May-17 14:28N 40°46' W 073°51'2 2.6
2015-May-17 13:34N 40°48' W 073°53'4 4.4
2015-May-17 12:34N 40°45' W 073°58'4 4.4
2015-May-17 11:34N 40°41' W 074°01'2 2.4
2015-May-17 10:33N 40°41' W 074°04'1 0.5
2015-May-17 09:34N 40°41' W 074°04'0 0.4
2015-May-17 08:34N 40°41' W 074°05'0 0.1
2015-May-17 07:34N 40°41' W 074°05'0 0.0
2015-May-17 06:34N 40°41' W 074°05'0 0.0
2015-May-17 05:34N 40°41' W 074°05'0 0.0
2015-May-17 04:34N 40°41' W 074°05'0 0.0
2015-May-17 03:33N 40°41' W 074°05'0 0.0
2015-May-17 02:34N 40°41' W 074°05'0 0.2
2015-May-17 01:33N 40°41' W 074°04'3 2.7
2015-May-17 00:33N 40°39' W 074°03'5 4.8
2015-May-16 23:32N 40°34' W 074°05'4 3.5
2015-May-16 22:31N 40°31' W 074°08'  
2015-May-14 13:07N 40°41' W 074°05'2 4.0
2015-May-14 12:33N 40°39' W 074°05'1 1.2
2015-May-14 11:29N 40°39' W 074°07'4 4.1
2015-May-14 10:33N 40°39' W 074°02'2 2.3
2015-May-14 09:30N 40°41' W 073°59'  
2015-May-09 19:04N 40°41' W 074°05'2 3.5
2015-May-09 18:34N 40°41' W 074°02'5 4.7
2015-May-09 17:33N 40°45' W 073°58'4 3.8
2015-May-09 16:33N 40°47' W 073°55'5 4.9
2015-May-09 15:32N 40°48' W 073°48'4 3.7
2015-May-09 14:32N 40°51' W 073°46'2 1.6
2015-May-09 13:33N 40°52' W 073°44'2 2.3
2015-May-09 12:33N 40°54' W 073°42'2 2.1
2015-May-09 11:32N 40°56' W 073°40'2 2.3
2015-May-09 10:33N 40°57' W 073°38'2 2.5
2015-May-09 09:33N 40°58' W 073°35'2 2.4
2015-May-09 08:33N 40°60' W 073°33'  
Track history (hours):
 
Tides and Currents Weather Stations Pressure Air Temp Water Temp Dewpoint Dewpoint Depression Visibility Wind Speed Wind Dir Waves Ship Positions

Rae

Owner: Fox Marine Corporation, Easton, PA. More information available from US FCC via Universal Licensing System and Coast Guard Vessel Documentation Center.

Last reported at 2015-May-17 15:33 UTC. Time now 2015-Jul-01 15:11 UTC.
Position N 40°46' W 073°51'.
Warning: this ship's position is 44 days out of date.

; draft 2 m.

Type: Fishing. MMSI: 367445510.

Date/timePositionNaut miles runAvg speedWind from/ knotsBaromVisibWave heightAir tempDewpointWater temp
2015-May-17 15:33N 40°46' W 073°51'1 0.6
2015-May-17 14:28N 40°46' W 073°51'2 2.6
2015-May-17 13:34N 40°48' W 073°53'4 4.4
2015-May-17 12:34N 40°45' W 073°58'4 4.4
2015-May-17 11:34N 40°41' W 074°01'2 2.4
2015-May-17 10:33N 40°41' W 074°04'1 0.5
2015-May-17 09:34N 40°41' W 074°04'0 0.4
2015-May-17 08:34N 40°41' W 074°05'0 0.1
2015-May-17 07:34N 40°41' W 074°05'0 0.0
2015-May-17 06:34N 40°41' W 074°05'0 0.0
2015-May-17 05:34N 40°41' W 074°05'0 0.0
2015-May-17 04:34N 40°41' W 074°05'0 0.0
2015-May-17 03:33N 40°41' W 074°05'0 0.0
2015-May-17 02:34N 40°41' W 074°05'0 0.2
2015-May-17 01:33N 40°41' W 074°04'3 2.7
2015-May-17 00:33N 40°39' W 074°03'5 4.8
2015-May-16 23:32N 40°34' W 074°05'4 3.5
2015-May-16 22:31N 40°31' W 074°08'  
2015-May-14 13:07N 40°41' W 074°05'2 4.0
2015-May-14 12:33N 40°39' W 074°05'1 1.2
2015-May-14 11:29N 40°39' W 074°07'4 4.1
2015-May-14 10:33N 40°39' W 074°02'2 2.3
2015-May-14 09:30N 40°41' W 073°59'  
2015-May-09 19:04N 40°41' W 074°05'2 3.5
2015-May-09 18:34N 40°41' W 074°02'5 4.7
2015-May-09 17:33N 40°45' W 073°58'4 3.8
2015-May-09 16:33N 40°47' W 073°55'5 4.9
2015-May-09 15:32N 40°48' W 073°48'4 3.7
2015-May-09 14:32N 40°51' W 073°46'2 1.6
2015-May-09 13:33N 40°52' W 073°44'2 2.3
2015-May-09 12:33N 40°54' W 073°42'2 2.1
2015-May-09 11:32N 40°56' W 073°40'2 2.3
2015-May-09 10:33N 40°57' W 073°38'2 2.5
2015-May-09 09:33N 40°58' W 073°35'2 2.4
2015-May-09 08:33N 40°60' W 073°33'  

Dump ship's entire track history